createdAt,value
2019-05-28T00:00:04.211Z,11.40
2019-05-28T00:02:37.149Z,11.60
2019-05-28T00:05:10.283Z,8.00
2019-05-28T00:07:43.462Z,7.20
2019-05-28T00:10:16.595Z,5.80
2019-05-28T00:12:49.400Z,6.80
2019-05-28T00:15:22.378Z,5.40
2019-05-28T00:17:55.211Z,6.80
2019-05-28T00:20:28.091Z,5.60
2019-05-28T00:23:00.927Z,6.40
2019-05-28T00:25:33.796Z,6.80
2019-05-28T00:28:06.633Z,7.00
2019-05-28T00:30:39.550Z,5.80
2019-05-28T00:33:12.393Z,6.20
2019-05-28T00:35:45.278Z,6.80
2019-05-28T00:38:18.187Z,6.00
2019-05-28T00:40:51.074Z,5.20
2019-05-28T00:43:23.979Z,5.00
2019-05-28T00:45:57.124Z,7.60
2019-05-28T00:48:30.041Z,8.80
2019-05-28T00:51:03.142Z,8.00
2019-05-28T00:53:36.293Z,5.00
2019-05-28T00:56:10.428Z,6.40
2019-05-28T00:58:44.250Z,3.60
2019-05-28T01:01:17.124Z,3.60
2019-05-28T01:03:49.955Z,3.20
2019-05-28T01:06:22.840Z,5.00
2019-05-28T01:08:55.788Z,3.40
2019-05-28T01:11:28.947Z,5.40
2019-05-28T01:14:01.872Z,3.80
2019-05-28T01:16:34.750Z,3.40
2019-05-28T01:19:07.623Z,3.80
2019-05-28T01:21:42.488Z,3.20
2019-05-28T01:24:15.304Z,3.40
2019-05-28T01:26:48.278Z,5.40
2019-05-28T01:29:21.108Z,4.40
2019-05-28T01:31:53.988Z,4.00
2019-05-28T01:34:26.831Z,4.00
2019-05-28T01:36:59.723Z,4.80
2019-05-28T01:39:32.799Z,3.40
2019-05-28T01:42:05.671Z,4.00
2019-05-28T01:44:38.518Z,3.60
2019-05-28T01:47:11.388Z,4.20
2019-05-28T01:49:44.231Z,4.60
2019-05-28T01:52:17.090Z,4.80
2019-05-28T01:54:49.927Z,4.20
2019-05-28T01:57:22.923Z,4.80
2019-05-28T01:59:56.036Z,5.60
2019-05-28T02:02:28.919Z,4.60
2019-05-28T02:05:01.750Z,3.60
2019-05-28T02:07:34.949Z,5.40
2019-05-28T02:10:08.348Z,3.80
2019-05-28T02:12:41.482Z,5.00
2019-05-28T02:15:14.980Z,4.20
2019-05-28T02:17:48.103Z,3.40
2019-05-28T02:20:21.010Z,3.60
2019-05-28T02:22:54.133Z,3.60
2019-05-28T02:25:27.240Z,5.20
2019-05-28T02:28:00.382Z,3.80
2019-05-28T02:30:33.417Z,3.40
2019-05-28T02:33:06.378Z,3.00
2019-05-28T02:35:39.290Z,3.00
2019-05-28T02:38:12.174Z,4.00
2019-05-28T02:40:45.006Z,5.00
2019-05-28T02:43:17.902Z,3.40
2019-05-28T02:45:50.737Z,2.80
2019-05-28T02:48:23.653Z,3.00
2019-05-28T02:50:59.156Z,3.00
2019-05-28T02:53:32.977Z,3.00
2019-05-28T02:56:05.959Z,2.40
2019-05-28T02:58:39.068Z,3.60
2019-05-28T03:01:12.207Z,2.00
2019-05-28T03:03:47.525Z,2.40
2019-05-28T03:06:23.163Z,3.00
2019-05-28T03:08:56.279Z,3.80
2019-05-28T03:11:29.306Z,3.00
2019-05-28T03:14:03.048Z,3.80
2019-05-28T03:16:39.439Z,4.40
2019-05-28T03:19:12.746Z,5.00
2019-05-28T03:21:47.368Z,4.60
2019-05-28T03:24:21.256Z,4.60
2019-05-28T03:26:54.203Z,4.60
2019-05-28T03:29:27.351Z,4.00
2019-05-28T03:32:08.154Z,3.00
2019-05-28T03:34:35.190Z,3.40
2019-05-28T03:37:09.564Z,2.60
2019-05-28T03:39:45.639Z,2.20
2019-05-28T03:42:18.511Z,4.80
2019-05-28T03:44:51.486Z,3.60
2019-05-28T03:47:24.357Z,3.00
2019-05-28T03:49:57.336Z,4.00
2019-05-28T03:52:30.240Z,2.60
2019-05-28T03:55:03.385Z,3.00
2019-05-28T03:57:36.429Z,2.80
2019-05-28T04:00:09.495Z,4.40
2019-05-28T04:02:42.401Z,3.00
2019-05-28T04:05:15.517Z,3.40
2019-05-28T04:07:48.786Z,4.00
2019-05-28T04:10:21.798Z,2.80
2019-05-28T04:12:54.881Z,3.60
2019-05-28T04:15:27.821Z,4.40
2019-05-28T04:18:00.798Z,3.00
2019-05-28T04:20:33.700Z,4.20
2019-05-28T04:23:12.438Z,2.60
2019-05-28T04:25:46.263Z,3.00
2019-05-28T04:28:19.268Z,3.00
2019-05-28T04:30:52.206Z,3.20
2019-05-28T04:33:25.071Z,3.00
2019-05-28T04:35:57.984Z,3.60
2019-05-28T04:38:30.951Z,2.60
2019-05-28T04:41:04.034Z,3.00
2019-05-28T04:43:36.926Z,1.40
2019-05-28T04:46:09.848Z,2.60
2019-05-28T04:48:42.790Z,3.80
2019-05-28T04:51:15.841Z,2.00
2019-05-28T04:53:48.750Z,2.00
2019-05-28T04:56:21.735Z,3.60
2019-05-28T04:58:54.602Z,1.20
2019-05-28T05:01:27.604Z,1.60
2019-05-28T05:04:00.498Z,2.60
2019-05-28T05:06:34.240Z,3.40
2019-05-28T05:09:07.464Z,3.60
2019-05-28T05:11:40.485Z,2.60
2019-05-28T05:14:14.968Z,2.20
2019-05-28T05:16:47.910Z,3.00
2019-05-28T05:19:20.857Z,3.40
2019-05-28T05:21:53.885Z,1.40
2019-05-28T05:24:26.765Z,2.00
2019-05-28T05:26:59.721Z,2.40
2019-05-28T05:29:32.598Z,1.80
2019-05-28T05:32:05.603Z,1.80
2019-05-28T05:34:38.481Z,2.00
2019-05-28T05:37:11.498Z,1.20
2019-05-28T05:39:48.532Z,1.80
2019-05-28T05:42:19.360Z,1.40
2019-05-28T05:44:52.454Z,1.00
2019-05-28T05:47:25.609Z,1.00
2019-05-28T05:49:58.471Z,1.80
2019-05-28T05:52:31.414Z,1.80
2019-05-28T05:55:05.172Z,2.00
2019-05-28T05:57:38.116Z,2.20
2019-05-28T06:00:11.946Z,2.40
2019-05-28T06:02:44.901Z,6.80
2019-05-28T06:05:18.074Z,24.00
2019-05-28T06:07:51.128Z,22.80
2019-05-28T06:10:24.082Z,23.75
2019-05-28T06:12:57.516Z,5.20
2019-05-28T06:15:30.567Z,1.40
2019-05-28T06:18:03.763Z,1.40
2019-05-28T06:20:37.192Z,2.00
2019-05-28T06:23:10.076Z,1.00
2019-05-28T06:25:43.045Z,0.00
2019-05-28T06:28:16.055Z,0.00
2019-05-28T06:30:51.982Z,0.00
2019-05-28T06:33:25.264Z,0.00
2019-05-28T06:35:58.245Z,0.00
2019-05-28T06:38:31.143Z,0.00
2019-05-28T06:41:04.189Z,0.80
2019-05-28T06:43:37.137Z,0.20
2019-05-28T06:46:10.152Z,0.80
2019-05-28T06:48:43.111Z,0.60
2019-05-28T06:51:16.296Z,1.00
2019-05-28T06:56:40.329Z,1.80
2019-05-28T06:59:13.648Z,1.00
2019-05-28T07:01:46.705Z,1.00
2019-05-28T07:04:32.226Z,1.20
2019-05-28T07:06:54.315Z,1.40
2019-05-28T07:09:27.335Z,1.80
2019-05-28T07:12:00.212Z,1.00
2019-05-28T07:14:33.356Z,1.80
2019-05-28T07:17:06.379Z,1.80
2019-05-28T07:19:39.585Z,0.80
2019-05-28T07:22:12.545Z,1.80
2019-05-28T07:27:36.248Z,1.00
2019-05-28T07:30:10.091Z,2.00
2019-05-28T07:32:43.044Z,2.60
2019-05-28T07:40:57.819Z,2.80
2019-05-28T07:43:30.746Z,3.20
2019-05-28T07:46:03.701Z,3.20
2019-05-28T07:48:36.850Z,3.20
2019-05-28T07:51:09.919Z,4.20
2019-05-28T07:53:43.006Z,4.00
2019-05-28T07:56:15.938Z,2.60
2019-05-28T07:58:48.972Z,4.20
2019-05-28T08:01:22.073Z,3.60
2019-05-28T08:03:55.050Z,3.00
2019-05-28T08:06:28.204Z,6.00
2019-05-28T08:09:01.304Z,4.00
2019-05-28T08:11:34.294Z,4.60
2019-05-28T08:14:07.199Z,4.60
2019-05-28T08:16:52.360Z,3.60
2019-05-28T08:19:15.967Z,4.40
2019-05-28T08:21:48.920Z,5.00
2019-05-28T08:24:22.991Z,6.00
2019-05-28T08:26:56.154Z,6.20
2019-05-28T08:29:29.079Z,5.80
2019-05-28T08:32:02.094Z,6.00
2019-05-28T08:34:35.364Z,6.80
2019-05-28T08:37:08.378Z,6.40
2019-05-28T08:39:41.422Z,7.60
2019-05-28T08:42:14.419Z,7.00
2019-05-28T08:44:47.624Z,5.60
2019-05-28T08:47:20.629Z,6.80
2019-05-28T08:49:53.552Z,7.40
2019-05-28T08:52:26.558Z,5.00
2019-05-28T08:54:59.464Z,5.60
2019-05-28T08:57:32.376Z,3.60
2019-05-28T09:00:09.018Z,5.00
2019-05-28T09:02:42.163Z,4.20
2019-05-28T09:05:26.006Z,4.00
2019-05-28T09:07:49.918Z,3.40
2019-05-28T09:10:22.794Z,3.80
2019-05-28T09:12:55.769Z,3.20
2019-05-28T09:15:28.582Z,4.40
2019-05-28T09:18:01.966Z,4.20
2019-05-28T09:20:35.003Z,4.00
2019-05-28T09:23:07.996Z,4.00
2019-05-28T09:25:40.807Z,4.00
2019-05-28T09:28:28.395Z,3.60
2019-05-28T09:30:48.420Z,3.00
2019-05-28T09:33:21.314Z,3.40
2019-05-28T09:36:07.417Z,3.00
2019-05-28T09:38:29.025Z,2.40
2019-05-28T09:41:05.714Z,1.00
2019-05-28T09:43:36.838Z,3.40
2019-05-28T09:46:09.739Z,3.20
2019-05-28T09:48:42.711Z,1.60
2019-05-28T09:51:14.939Z,2.80
2019-05-28T09:53:48.175Z,4.20
2019-05-28T09:56:21.051Z,3.80
2019-05-28T09:58:53.905Z,6.80
2019-05-28T10:01:26.813Z,13.40
2019-05-28T10:03:59.709Z,14.80
2019-05-28T10:06:37.253Z,13.60
2019-05-28T10:09:07.238Z,13.60
2019-05-28T10:11:40.183Z,14.40
2019-05-28T10:14:13.091Z,15.20
2019-05-28T10:16:45.979Z,15.20
2019-05-28T10:19:19.220Z,19.80
2019-05-28T10:21:52.473Z,9.80
2019-05-28T10:24:25.416Z,6.60
2019-05-28T10:26:58.247Z,3.00
2019-05-28T10:29:31.135Z,3.60
2019-05-28T10:32:04.257Z,17.20
2019-05-28T10:34:37.376Z,14.20
2019-05-28T10:37:10.548Z,2.60
2019-05-28T10:39:43.441Z,4.00
2019-05-28T10:42:16.314Z,5.00
2019-05-28T10:44:49.190Z,5.00
2019-05-28T10:47:22.102Z,6.00
2019-05-28T10:49:54.960Z,6.00
2019-05-28T10:52:27.798Z,5.80
2019-05-28T10:55:02.738Z,6.60
2019-05-28T10:57:35.627Z,3.80
2019-05-28T11:00:09.418Z,5.40
2019-05-28T11:02:42.330Z,4.40
2019-05-28T11:05:16.072Z,3.80
2019-05-28T11:07:48.934Z,5.40
2019-05-28T11:10:24.309Z,5.40
2019-05-28T11:12:56.815Z,4.00
2019-05-28T11:15:29.815Z,5.60
2019-05-28T11:18:02.823Z,7.80
2019-05-28T11:20:35.869Z,9.80
2019-05-28T11:23:08.781Z,6.40
2019-05-28T11:25:41.871Z,4.60
2019-05-28T11:28:14.801Z,3.80
2019-05-28T11:30:47.680Z,5.00
2019-05-28T11:33:20.511Z,5.60
2019-05-28T11:35:53.472Z,5.20
2019-05-28T11:38:26.309Z,3.20
2019-05-28T11:40:59.225Z,1.80
2019-05-28T11:43:32.378Z,1.80
2019-05-28T11:46:05.409Z,1.00
2019-05-28T11:48:38.228Z,1.80
2019-05-28T11:51:11.125Z,1.00
2019-05-28T11:53:43.957Z,1.00
2019-05-28T11:56:16.913Z,1.60
2019-05-28T11:58:49.824Z,1.00
2019-05-28T12:01:33.761Z,1.60
2019-05-28T12:03:57.568Z,12.40
2019-05-28T12:06:30.441Z,2.00
2019-05-28T12:09:05.676Z,1.60
2019-05-28T12:11:38.553Z,1.80
2019-05-28T12:14:11.372Z,1.00
2019-05-28T12:16:44.287Z,1.00
2019-05-28T12:19:16.200Z,1.00
2019-05-28T12:21:49.077Z,1.00
2019-05-28T12:24:22.956Z,1.20
2019-05-28T12:26:56.344Z,1.00
2019-05-28T12:29:29.172Z,1.00
2019-05-28T12:32:02.686Z,1.60
2019-05-28T12:34:36.667Z,1.00
2019-05-28T12:37:09.604Z,1.00
2019-05-28T12:39:42.438Z,3.00
2019-05-28T12:42:15.885Z,2.40
2019-05-28T12:45:05.447Z,2.60
2019-05-28T12:47:23.335Z,3.00
2019-05-28T12:50:14.451Z,1.20
2019-05-28T12:52:30.855Z,2.20
2019-05-28T12:55:04.931Z,2.00
2019-05-28T12:57:37.873Z,3.20
2019-05-28T13:00:12.525Z,2.40
2019-05-28T13:02:45.440Z,1.60
2019-05-28T13:05:21.380Z,2.00
2019-05-28T13:08:07.469Z,2.20
2019-05-28T13:10:28.805Z,2.00
2019-05-28T13:13:01.678Z,0.20
2019-05-28T13:15:34.735Z,2.40
2019-05-28T13:18:07.715Z,2.00
2019-05-28T13:20:40.538Z,2.40
2019-05-28T13:23:13.702Z,3.80
2019-05-28T13:25:46.704Z,2.60
2019-05-28T13:28:19.663Z,3.40
2019-05-28T13:30:52.496Z,4.00
2019-05-28T13:33:25.376Z,3.00
2019-05-28T13:35:58.607Z,2.80
2019-05-28T13:38:31.516Z,4.00
2019-05-28T13:41:04.448Z,4.00
2019-05-28T13:43:37.361Z,4.00
2019-05-28T13:46:10.492Z,2.60
2019-05-28T13:48:43.562Z,2.20
2019-05-28T13:51:16.372Z,2.40
2019-05-28T13:53:49.300Z,2.80
2019-05-28T13:56:22.221Z,3.00
2019-05-28T13:58:55.441Z,2.80
2019-05-28T14:01:28.283Z,2.40
2019-05-28T14:04:01.247Z,2.20
2019-05-28T14:06:34.112Z,3.00
2019-05-28T14:09:08.411Z,3.00
2019-05-28T14:11:41.350Z,2.00
2019-05-28T14:14:14.321Z,1.80
2019-05-28T14:16:47.163Z,2.00
2019-05-28T14:19:20.150Z,1.60
2019-05-28T14:21:52.985Z,1.40
2019-05-28T14:24:26.013Z,1.00
2019-05-28T14:26:59.116Z,1.60
2019-05-28T14:29:31.986Z,2.00
2019-05-28T14:32:05.195Z,1.00
2019-05-28T14:34:38.102Z,1.80
2019-05-28T14:37:10.957Z,2.80
2019-05-28T14:39:43.864Z,2.00
2019-05-28T14:42:17.678Z,1.00
2019-05-28T14:44:50.654Z,0.80
2019-05-28T14:49:57.136Z,2.20
2019-05-28T14:52:29.965Z,3.20
2019-05-28T14:55:03.372Z,2.00
2019-05-28T14:57:36.324Z,2.80
2019-05-28T15:00:10.194Z,5.00
2019-05-28T15:02:43.092Z,1.80
2019-05-28T15:05:17.068Z,3.00
2019-05-28T15:07:50.264Z,3.00
2019-05-28T15:10:23.465Z,4.80
2019-05-28T15:12:56.691Z,3.00
2019-05-28T15:15:36.006Z,9.40
2019-05-28T15:18:04.281Z,2.80
2019-05-28T15:20:37.125Z,2.80
2019-05-28T15:23:09.945Z,2.00
2019-05-28T15:25:43.298Z,2.80
2019-05-28T15:28:16.261Z,3.60
2019-05-28T15:30:49.390Z,2.80
2019-05-28T15:33:22.226Z,3.60
2019-05-28T15:35:56.302Z,1.60
2019-05-28T15:38:29.695Z,2.40
2019-05-28T15:41:02.646Z,2.20
2019-05-28T15:43:35.756Z,2.00
2019-05-28T15:46:08.619Z,2.00
2019-05-28T15:48:41.462Z,2.00
2019-05-28T15:51:14.596Z,1.00
2019-05-28T15:53:47.414Z,2.00
2019-05-28T15:56:20.304Z,2.00
2019-05-28T15:58:53.136Z,2.20
2019-05-28T16:01:26.022Z,2.60
2019-05-28T16:03:58.854Z,2.00
2019-05-28T16:06:31.726Z,1.00
2019-05-28T16:09:06.581Z,1.00
2019-05-28T16:11:39.445Z,1.60
2019-05-28T16:14:12.551Z,1.80
2019-05-28T16:16:45.913Z,1.20
2019-05-28T16:19:18.745Z,2.00
2019-05-28T16:21:51.640Z,1.40
2019-05-28T16:24:24.473Z,1.00
2019-05-28T16:26:57.830Z,0.00
2019-05-28T16:29:30.826Z,0.40
2019-05-28T16:32:03.785Z,1.00
2019-05-28T16:34:36.641Z,1.40
2019-05-28T16:37:10.082Z,0.40
2019-05-28T16:39:42.916Z,0.80
2019-05-28T16:42:15.864Z,1.00
2019-05-28T16:44:48.694Z,1.80
2019-05-28T16:47:21.568Z,0.80
2019-05-28T16:49:54.410Z,0.80
2019-05-28T16:52:27.299Z,1.80
2019-05-28T16:55:00.129Z,0.60
2019-05-28T16:57:33.001Z,0.60
2019-05-28T17:00:07.310Z,1.20
2019-05-28T17:02:40.276Z,0.00
2019-05-28T17:05:13.559Z,0.00
2019-05-28T17:07:46.448Z,0.00
2019-05-28T17:10:32.232Z,0.60
2019-05-28T17:12:54.229Z,0.80
2019-05-28T17:15:27.135Z,1.00
2019-05-28T17:18:00.030Z,0.00
2019-05-28T17:20:32.939Z,0.60
2019-05-28T17:23:06.125Z,1.00
2019-05-28T17:25:38.943Z,1.00
2019-05-28T17:28:12.064Z,0.40
2019-05-28T17:30:45.869Z,0.20
2019-05-28T17:33:18.768Z,1.20
2019-05-28T17:35:57.360Z,0.40
2019-05-28T17:38:29.832Z,0.20
2019-05-28T17:41:02.730Z,0.00
2019-05-28T17:43:35.662Z,0.00
2019-05-28T17:46:08.492Z,0.00
2019-05-28T17:48:41.495Z,0.00
2019-05-28T17:51:14.388Z,0.00
2019-05-28T17:53:47.388Z,0.00
2019-05-28T17:56:20.224Z,0.00
2019-05-28T17:58:53.406Z,0.00
2019-05-28T18:01:26.769Z,0.00
2019-05-28T18:03:59.646Z,0.00
2019-05-28T18:06:32.478Z,0.00
2019-05-28T18:09:06.570Z,0.80
2019-05-28T18:11:39.401Z,1.00
2019-05-28T18:14:12.553Z,0.80
2019-05-28T18:16:45.456Z,0.00
2019-05-28T18:19:18.334Z,0.60
2019-05-28T18:21:51.170Z,0.00
2019-05-28T18:24:24.150Z,0.00
2019-05-28T18:26:57.172Z,0.80
2019-05-28T18:29:30.227Z,0.60
2019-05-28T18:32:03.394Z,0.80
2019-05-28T18:34:36.460Z,0.00
2019-05-28T18:37:09.354Z,1.00
2019-05-28T18:39:42.252Z,0.60
2019-05-28T18:42:15.094Z,0.00
2019-05-28T18:44:48.143Z,0.00
2019-05-28T18:47:20.970Z,0.40
2019-05-28T18:49:56.956Z,0.00
2019-05-28T18:52:28.431Z,0.00
2019-05-28T18:55:02.507Z,0.00
2019-05-28T18:57:36.043Z,0.40
2019-05-28T19:00:10.934Z,1.00
2019-05-28T19:02:44.652Z,1.20
2019-05-28T19:05:18.036Z,0.60
2019-05-28T19:07:50.868Z,1.00
2019-05-28T19:10:23.852Z,0.00
2019-05-28T19:12:58.330Z,0.00
2019-05-28T19:15:31.322Z,0.40
2019-05-28T19:18:05.400Z,1.00
2019-05-28T19:20:38.293Z,0.80
2019-05-28T19:23:11.122Z,0.20
2019-05-28T19:25:44.644Z,0.60
2019-05-28T19:28:18.041Z,0.80
2019-05-28T19:30:51.570Z,0.20
2019-05-28T19:33:25.332Z,0.80
2019-05-28T19:35:58.839Z,1.00
2019-05-28T19:38:45.018Z,0.40
2019-05-28T19:41:07.563Z,1.20
2019-05-28T19:43:40.697Z,1.00
2019-05-28T19:46:13.562Z,0.20
2019-05-28T19:48:46.404Z,1.00
2019-05-28T19:51:19.422Z,5.00
2019-05-28T19:53:52.434Z,1.00
2019-05-28T19:56:25.646Z,1.00
2019-05-28T19:58:58.483Z,2.00
2019-05-28T20:01:31.358Z,1.00
2019-05-28T20:04:04.574Z,1.00
2019-05-28T20:06:37.645Z,2.80
2019-05-28T20:09:10.563Z,2.40
2019-05-28T20:11:43.528Z,2.20
2019-05-28T20:14:16.363Z,1.00
2019-05-28T20:16:49.281Z,2.00
2019-05-28T20:19:22.127Z,3.20
2019-05-28T20:21:55.774Z,3.80
2019-05-28T20:24:29.721Z,5.40
2019-05-28T20:27:02.616Z,3.60
2019-05-28T20:29:35.474Z,3.20
2019-05-28T20:32:09.336Z,1.20
2019-05-28T20:34:42.691Z,1.00
2019-05-28T20:37:15.646Z,1.00
2019-05-28T20:39:48.486Z,1.60
2019-05-28T20:42:27.266Z,1.20
2019-05-28T20:44:56.006Z,2.00
2019-05-28T20:47:28.975Z,1.80
2019-05-28T20:50:04.398Z,1.00
2019-05-28T20:52:36.878Z,1.40
2019-05-28T20:55:10.523Z,1.60
2019-05-28T20:57:43.410Z,1.60
2019-05-28T21:00:16.627Z,1.80
2019-05-28T21:02:49.897Z,2.40
2019-05-28T21:05:22.820Z,1.60
2019-05-28T21:07:56.265Z,1.00
2019-05-28T21:10:29.086Z,2.60
2019-05-28T21:13:02.347Z,1.00
2019-05-28T21:15:35.368Z,1.40
2019-05-28T21:18:08.278Z,2.60
2019-05-28T21:20:41.474Z,2.00
2019-05-28T21:23:17.714Z,2.00
2019-05-28T21:25:49.995Z,2.60
2019-05-28T21:28:25.890Z,3.00
2019-05-28T21:30:58.861Z,3.00
2019-05-28T21:33:31.802Z,2.80
2019-05-28T21:36:07.363Z,2.00
2019-05-28T21:38:40.258Z,3.80
2019-05-28T21:41:13.138Z,2.00
2019-05-28T21:43:46.042Z,1.40
2019-05-28T21:46:18.883Z,3.00
2019-05-28T21:48:52.320Z,3.00
2019-05-28T21:51:25.223Z,2.00
2019-05-28T21:53:58.945Z,3.80
2019-05-28T21:56:31.748Z,3.80
2019-05-28T21:59:05.122Z,3.20
2019-05-28T22:01:38.521Z,3.00
2019-05-28T22:04:11.507Z,2.60
2019-05-28T22:06:44.362Z,3.00
2019-05-28T22:09:17.256Z,3.60
2019-05-28T22:11:50.394Z,2.00
2019-05-28T22:14:23.463Z,3.00
2019-05-28T22:16:59.444Z,2.40
2019-05-28T22:19:31.356Z,3.00
2019-05-28T22:22:04.724Z,2.00
2019-05-28T22:24:37.926Z,2.20
2019-05-28T22:27:11.071Z,2.60
2019-05-28T22:29:43.970Z,2.00
2019-05-28T22:32:16.896Z,2.40
2019-05-28T22:34:49.794Z,2.40
2019-05-28T22:37:22.771Z,3.00
2019-05-28T22:39:55.664Z,2.80
2019-05-28T22:42:28.599Z,2.80
2019-05-28T22:45:03.145Z,4.00
2019-05-28T22:47:36.110Z,4.80
2019-05-28T22:50:19.678Z,4.00
2019-05-28T22:52:43.762Z,2.60
2019-05-28T22:55:17.141Z,3.60
2019-05-28T22:57:49.981Z,2.00
2019-05-28T23:00:23.270Z,3.00
2019-05-28T23:02:56.163Z,2.75
2019-05-28T23:05:29.064Z,4.00
2019-05-28T23:08:01.978Z,2.80
2019-05-28T23:10:34.938Z,6.00
2019-05-28T23:13:08.882Z,3.00
2019-05-28T23:15:42.437Z,3.00
2019-05-28T23:18:15.267Z,4.00
2019-05-28T23:20:48.152Z,4.20
2019-05-28T23:23:20.972Z,3.50
2019-05-28T23:25:53.847Z,4.00
2019-05-28T23:28:26.668Z,3.00
2019-05-28T23:30:59.524Z,4.75
2019-05-28T23:33:32.343Z,3.25
2019-05-28T23:36:06.499Z,3.75
2019-05-28T23:38:39.476Z,4.00
2019-05-28T23:41:13.531Z,4.50
2019-05-28T23:44:00.892Z,4.25
2019-05-28T23:46:20.942Z,4.00
2019-05-28T23:48:53.758Z,4.50
2019-05-28T23:51:26.681Z,4.00
2019-05-28T23:53:59.573Z,2.75
2019-05-28T23:56:32.535Z,2.50
2019-05-28T23:59:05.637Z,2.00
